Terminal Aerodrome Forecast
Issued by NWS

Home | Current Version | Previous Version | Text Only | Print | Product List | Glossary On
Versions: 1 2 3 4 5 6 7 8 9 10 11 12
000
FTUS43 KIND 300500
TAFBMG
TAF
KBMG 300520Z 3006/3106 28008KT P6SM SCT025 BKN035
     FM300900 29005KT P6SM SCT035
     FM301300 29009KT P6SM SCT250
     FM302100 25012KT P6SM SCT100
      AMD LTD TO CLD VIS AND WIND TIL 301300=

USA.gov is the U.S. government's official web portal to all federal, state and local government web resources and services.